createdAt,value
2022-11-20T00:01:07.014Z,100315.81
2022-11-20T00:03:34.203Z,100320.69
2022-11-20T00:06:09.942Z,100311.25
2022-11-20T00:08:37.319Z,100312.72
2022-11-20T00:11:15.727Z,100311.94
2022-11-20T00:13:44.898Z,100314.56
2022-11-20T00:16:14.823Z,100295.78
2022-11-20T00:18:43.356Z,100301.16
2022-11-20T00:21:16.916Z,100290.19
2022-11-20T00:23:44.367Z,100294.81
2022-11-20T00:26:13.893Z,100294.66
2022-11-20T00:28:41.730Z,100285.69
2022-11-20T00:31:14.331Z,100288.16
2022-11-20T00:33:42.414Z,100294.03
2022-11-20T00:36:17.901Z,100291.09
2022-11-20T00:38:45.522Z,100294.50
2022-11-20T00:41:15.148Z,100285.88
2022-11-20T00:43:42.862Z,100284.44
2022-11-20T00:46:15.581Z,100276.13
2022-11-20T00:48:43.329Z,100285.88
2022-11-20T00:51:12.055Z,100284.09
2022-11-20T00:53:38.803Z,100282.47
2022-11-20T00:56:08.847Z,100279.72
2022-11-20T00:58:37.755Z,100280.69
2022-11-20T01:01:10.131Z,100283.13
2022-11-20T01:03:40.059Z,100291.13
2022-11-20T01:06:19.000Z,100291.13
2022-11-20T01:08:47.113Z,100284.25
2022-11-20T01:11:17.114Z,100283.81
2022-11-20T01:13:46.179Z,100282.81
2022-11-20T01:16:21.987Z,100284.63
2022-11-20T01:18:51.817Z,100285.91
2022-11-20T01:21:23.995Z,100282.34
2022-11-20T01:23:52.041Z,100281.34
2022-11-20T01:26:25.908Z,100270.75
2022-11-20T01:28:54.044Z,100278.41
2022-11-20T01:31:24.543Z,100272.72
2022-11-20T01:33:54.429Z,100274.03
2022-11-20T01:36:23.363Z,100282.34
2022-11-20T01:38:54.464Z,100284.91
2022-11-20T01:41:41.345Z,100281.66
2022-11-20T01:44:11.773Z,100286.56
2022-11-20T01:46:41.318Z,100285.41
2022-11-20T01:49:30.890Z,100285.75
2022-11-20T01:52:23.990Z,100292.13
2022-11-20T01:54:57.575Z,100277.91
2022-11-20T01:57:29.307Z,100283.66
2022-11-20T02:00:03.791Z,100282.63
2022-11-20T02:02:41.749Z,100280.03
2022-11-20T02:05:27.001Z,100278.56
2022-11-20T02:07:57.261Z,100278.75
2022-11-20T02:10:24.073Z,100278.75
2022-11-20T02:13:09.763Z,100278.41
2022-11-20T02:15:36.655Z,100288.06
2022-11-20T02:18:03.749Z,100278.44
2022-11-20T02:20:30.479Z,100277.78
2022-11-20T02:23:09.053Z,100271.56
2022-11-20T02:25:38.008Z,100274.81
2022-11-20T02:28:05.840Z,100279.41
2022-11-20T02:30:32.970Z,100283.00
2022-11-20T02:32:59.696Z,100275.63
2022-11-20T02:35:26.592Z,100270.75
2022-11-20T02:37:56.332Z,100263.44
2022-11-20T02:40:23.818Z,100274.97
2022-11-20T02:42:54.609Z,100271.25
2022-11-20T02:45:21.848Z,100265.84
2022-11-20T02:47:48.627Z,100269.28
2022-11-20T02:50:15.869Z,100276.78
2022-11-20T02:52:43.571Z,100268.63
2022-11-20T02:55:11.433Z,100273.69
2022-11-20T02:57:38.179Z,100268.97
2022-11-20T03:00:05.999Z,100283.81
2022-11-20T03:02:33.261Z,100281.69
2022-11-20T03:05:00.089Z,100283.97
2022-11-20T03:07:26.816Z,100281.06
2022-11-20T03:09:53.561Z,100282.19
2022-11-20T03:12:20.153Z,100283.50
2022-11-20T03:14:52.572Z,100281.06
2022-11-20T03:17:20.107Z,100284.81
2022-11-20T03:19:46.991Z,100274.38
2022-11-20T03:22:13.896Z,100270.94
2022-11-20T03:24:40.719Z,100268.31
2022-11-20T03:27:07.576Z,100272.22
2022-11-20T03:29:35.727Z,100260.47
2022-11-20T03:32:02.636Z,100260.47
2022-11-20T03:34:29.303Z,100257.88
2022-11-20T03:36:56.087Z,100249.88
2022-11-20T03:39:23.010Z,100256.91
2022-11-20T03:41:50.105Z,100256.91
2022-11-20T03:44:17.167Z,100252.00
2022-11-20T03:46:43.913Z,100254.78
2022-11-20T03:49:10.710Z,100249.75
2022-11-20T03:51:37.524Z,100256.78
2022-11-20T03:54:09.134Z,100259.19
2022-11-20T03:56:38.122Z,100253.50
2022-11-20T03:59:05.311Z,100240.31
2022-11-20T04:01:35.823Z,100243.88
2022-11-20T04:04:03.498Z,100245.53
2022-11-20T04:06:34.728Z,100246.81
2022-11-20T04:09:01.685Z,100248.47
2022-11-20T04:11:31.074Z,100247.50
2022-11-20T04:14:14.452Z,100249.91
2022-11-20T04:16:41.709Z,100247.78
2022-11-20T04:19:13.028Z,100250.25
2022-11-20T04:21:39.654Z,100245.38
2022-11-20T04:24:07.565Z,100244.72
2022-11-20T04:26:35.432Z,100259.72
2022-11-20T04:29:02.953Z,100263.13
2022-11-20T04:31:33.864Z,100252.88
2022-11-20T04:34:02.296Z,100255.47
2022-11-20T04:36:30.118Z,100259.72
2022-11-20T04:39:00.641Z,100256.94
2022-11-20T04:41:32.386Z,100264.44
2022-11-20T04:44:04.269Z,100260.03
2022-11-20T04:46:37.388Z,100258.56
2022-11-20T04:49:04.316Z,100261.34
2022-11-20T04:51:31.090Z,100264.13
2022-11-20T04:53:58.079Z,100264.75
2022-11-20T04:56:25.285Z,100255.97
2022-11-20T04:58:52.107Z,100270.94
2022-11-20T05:01:22.221Z,100262.47
2022-11-20T05:03:49.439Z,100257.09
2022-11-20T05:06:18.909Z,100256.09
2022-11-20T05:08:45.672Z,100253.97
2022-11-20T05:11:15.318Z,100248.63
2022-11-20T05:13:42.890Z,100250.44
2022-11-20T05:16:12.949Z,100249.28
2022-11-20T05:18:40.803Z,100246.84
2022-11-20T05:21:08.740Z,100236.88
2022-11-20T05:23:36.892Z,100233.94
2022-11-20T05:26:04.647Z,100237.06
2022-11-20T05:28:32.737Z,100228.09
2022-11-20T05:31:09.718Z,100232.50
2022-11-20T05:33:37.255Z,100234.75
2022-11-20T05:36:05.323Z,100228.41
2022-11-20T05:38:32.229Z,100228.56
2022-11-20T05:41:05.629Z,100226.44
2022-11-20T05:43:41.076Z,100224.31
2022-11-20T05:46:10.191Z,100224.84
2022-11-20T05:48:38.375Z,100223.38
2022-11-20T05:51:08.178Z,100227.25
2022-11-20T05:53:36.877Z,100225.31
2022-11-20T05:56:05.498Z,100220.72
2022-11-20T05:58:33.396Z,100235.75
2022-11-20T06:01:11.749Z,100230.53
2022-11-20T06:03:39.250Z,100225.16
2022-11-20T06:06:06.656Z,100231.16
2022-11-20T06:08:34.169Z,100236.22
2022-11-20T06:11:07.734Z,100237.69
2022-11-20T06:13:39.169Z,100242.59
2022-11-20T06:16:08.568Z,100236.22
2022-11-20T06:18:35.324Z,100247.00
2022-11-20T06:21:04.901Z,100244.22
2022-11-20T06:23:32.606Z,100246.16
2022-11-20T06:26:06.530Z,100247.09
2022-11-20T06:28:33.579Z,100252.66
2022-11-20T06:31:00.884Z,100243.53
2022-11-20T06:33:28.168Z,100238.97
2022-11-20T06:36:00.454Z,100235.91
2022-11-20T06:38:29.519Z,100241.28
2022-11-20T06:40:56.804Z,100243.38
2022-11-20T06:43:23.835Z,100243.19
2022-11-20T06:45:57.872Z,100245.63
2022-11-20T06:48:26.455Z,100246.16
2022-11-20T06:50:53.536Z,100239.63
2022-11-20T06:53:20.376Z,100239.16
2022-11-20T06:55:48.407Z,100245.00
2022-11-20T06:58:16.396Z,100238.66
2022-11-20T07:00:44.215Z,100246.84
2022-11-20T07:03:12.867Z,100245.00
2022-11-20T07:05:39.805Z,100250.38
2022-11-20T07:08:06.698Z,100241.28
2022-11-20T07:10:33.936Z,100241.72
2022-11-20T07:13:00.792Z,100239.13
2022-11-20T07:15:28.076Z,100233.44
2022-11-20T07:17:54.940Z,100237.16
2022-11-20T07:20:21.887Z,100238.66
2022-11-20T07:22:55.737Z,100237.66
2022-11-20T07:25:23.550Z,100238.66
2022-11-20T07:27:50.338Z,100235.41
2022-11-20T07:30:17.812Z,100237.06
2022-11-20T07:32:48.094Z,100235.75
2022-11-20T07:35:15.298Z,100240.94
2022-11-20T07:37:42.056Z,100241.91
2022-11-20T07:40:09.194Z,100243.41
2022-11-20T07:42:36.018Z,100235.09
2022-11-20T07:45:02.656Z,100231.03
2022-11-20T07:47:29.414Z,100222.06
2022-11-20T07:49:56.366Z,100225.63
2022-11-20T07:52:23.062Z,100219.78
2022-11-20T07:54:50.041Z,100221.38
2022-11-20T07:57:17.044Z,100229.84
2022-11-20T07:59:43.962Z,100232.78
2022-11-20T08:02:12.332Z,100216.34
2022-11-20T08:04:39.068Z,100228.72
2022-11-20T08:07:05.807Z,100238.00
2022-11-20T08:09:34.982Z,100247.28
2022-11-20T08:12:20.494Z,100240.59
2022-11-20T08:14:47.268Z,100247.41
2022-11-20T08:17:14.163Z,100246.97
2022-11-20T08:19:40.860Z,100239.63
2022-11-20T08:22:07.715Z,100235.72
2022-11-20T08:24:34.432Z,100227.88
2022-11-20T08:27:01.689Z,100236.34
2022-11-20T08:29:28.599Z,100227.88
2022-11-20T08:31:55.529Z,100227.06
2022-11-20T08:34:22.463Z,100221.53
2022-11-20T08:36:49.206Z,100217.66
2022-11-20T08:39:16.116Z,100210.81
2022-11-20T08:41:42.963Z,100214.22
2022-11-20T08:44:09.940Z,100211.47
2022-11-20T08:46:39.676Z,100209.19
2022-11-20T08:49:07.865Z,100208.22
2022-11-20T08:51:34.717Z,100204.81
2022-11-20T08:54:01.926Z,100216.03
2022-11-20T08:56:28.857Z,100214.88
2022-11-20T08:59:20.142Z,100207.72
2022-11-20T09:01:42.668Z,100208.22
2022-11-20T09:04:09.733Z,100216.03
2022-11-20T09:06:36.858Z,100217.31
2022-11-20T09:09:06.861Z,100201.22
2022-11-20T09:11:34.033Z,100191.09
2022-11-20T09:14:01.318Z,100183.28
2022-11-20T09:16:28.224Z,100190.44
2022-11-20T09:19:20.168Z,100190.44
2022-11-20T09:21:41.807Z,100184.25
2022-11-20T09:24:08.614Z,100186.84
2022-11-20T09:26:35.725Z,100189.13
2022-11-20T09:29:02.577Z,100187.66
2022-11-20T09:31:29.504Z,100185.06
2022-11-20T09:33:56.494Z,100179.84
2022-11-20T09:36:23.358Z,100178.38
2022-11-20T09:38:50.526Z,100168.91
2022-11-20T09:41:17.228Z,100175.75
2022-11-20T09:44:05.614Z,100177.88
2022-11-20T09:46:46.384Z,100174.31
2022-11-20T09:49:51.359Z,100172.31
2022-11-20T09:52:47.399Z,100165.47
2022-11-20T09:55:15.984Z,100164.16
2022-11-20T09:57:48.090Z,100161.75
2022-11-20T10:00:16.290Z,100157.50
2022-11-20T10:03:07.461Z,100153.56
2022-11-20T10:05:53.803Z,100153.41
2022-11-20T10:08:30.355Z,100150.63
2022-11-20T10:11:21.015Z,100132.38
2022-11-20T10:14:11.844Z,100135.63
2022-11-20T10:17:02.684Z,100129.75
2022-11-20T10:19:43.953Z,100127.16
2022-11-20T10:22:29.495Z,100120.78
2022-11-20T10:25:22.999Z,100120.78
2022-11-20T10:27:58.792Z,100120.13
2022-11-20T10:30:26.378Z,100096.97
2022-11-20T10:32:59.740Z,100100.22
2022-11-20T10:36:01.036Z,100104.31
2022-11-20T10:38:51.450Z,100099.72
2022-11-20T10:41:27.253Z,100094.97
2022-11-20T10:44:03.059Z,100089.75
2022-11-20T10:46:39.102Z,100094.16
2022-11-20T10:49:20.316Z,100078.66
2022-11-20T10:52:12.315Z,100087.78
2022-11-20T10:54:54.107Z,100066.59
2022-11-20T10:57:51.332Z,100072.28
2022-11-20T11:00:18.704Z,100069.84
2022-11-20T11:02:54.243Z,100061.19
2022-11-20T11:05:45.478Z,100052.88
2022-11-20T11:08:15.830Z,100053.34
2022-11-20T11:10:53.574Z,100052.53
2022-11-20T11:13:29.711Z,100037.19
2022-11-20T11:15:57.433Z,100033.28
2022-11-20T11:18:31.232Z,100024.50
2022-11-20T11:21:00.606Z,100019.06
2022-11-20T11:23:33.512Z,100018.06
2022-11-20T11:26:02.308Z,100010.44
2022-11-20T11:28:29.708Z,100010.91
2022-11-20T11:30:57.214Z,99998.19
2022-11-20T11:33:29.582Z,99998.00
2022-11-20T11:35:59.644Z,99992.88
2022-11-20T11:38:29.445Z,99992.81
2022-11-20T11:40:58.289Z,99988.72
2022-11-20T11:43:46.463Z,99992.44
2022-11-20T11:46:32.774Z,99991.88
2022-11-20T11:49:01.387Z,99983.84
2022-11-20T11:51:37.801Z,99974.16
2022-11-20T11:54:14.881Z,99970.34
2022-11-20T11:56:42.042Z,99965.75
2022-11-20T11:59:17.488Z,99965.31
2022-11-20T12:01:52.228Z,99965.59
2022-11-20T12:04:43.669Z,99966.66
2022-11-20T12:07:46.008Z,99954.03
2022-11-20T12:10:31.290Z,99945.72
2022-11-20T12:13:05.723Z,99938.34
2022-11-20T12:15:35.648Z,99931.97
2022-11-20T12:18:03.104Z,99929.78
2022-11-20T12:20:46.872Z,99928.97
2022-11-20T12:23:29.031Z,99932.69
2022-11-20T12:25:59.692Z,99920.72
2022-11-20T12:28:49.982Z,99921.16
2022-11-20T12:31:52.378Z,99921.03
2022-11-20T12:34:48.580Z,99908.19
2022-11-20T12:37:47.711Z,99899.78
2022-11-20T12:40:48.678Z,99894.72
2022-11-20T12:44:05.637Z,99882.34
2022-11-20T12:46:51.381Z,99880.22
2022-11-20T12:50:07.044Z,99874.06
2022-11-20T12:52:52.800Z,99878.34
2022-11-20T12:55:54.640Z,99873.47
2022-11-20T12:59:09.433Z,99866.66
2022-11-20T13:01:48.856Z,99870.44
2022-11-20T13:12:46.083Z,99847.03
2022-11-20T13:15:32.130Z,99838.38
2022-11-20T13:18:09.855Z,99835.13
2022-11-20T13:23:34.666Z,99829.84
2022-11-20T13:26:07.290Z,99824.63
2022-11-20T13:28:34.502Z,99823.13
2022-11-20T13:31:01.430Z,99825.56
2022-11-20T13:33:40.597Z,99818.97
2022-11-20T13:36:22.998Z,99826.03
2022-11-20T13:39:00.651Z,99818.16
2022-11-20T13:41:35.166Z,99819.09
2022-11-20T13:44:36.371Z,99810.66
2022-11-20T13:47:03.295Z,99800.72
2022-11-20T13:49:43.851Z,99796.44
2022-11-20T13:52:49.020Z,99802.44
2022-11-20T13:55:47.660Z,99793.75
2022-11-20T13:59:05.292Z,99794.13
2022-11-20T14:01:33.719Z,99789.03
2022-11-20T14:04:07.601Z,99778.75
2022-11-20T14:06:42.280Z,99766.81
2022-11-20T14:09:31.606Z,99746.25
2022-11-20T14:11:58.599Z,99755.03
2022-11-20T14:14:28.056Z,99748.31
2022-11-20T14:17:05.968Z,99741.16
2022-11-20T14:19:33.793Z,99738.59
2022-11-20T14:22:24.494Z,99722.06
2022-11-20T14:25:13.027Z,99710.84
2022-11-20T14:27:42.670Z,99710.84
2022-11-20T14:30:35.798Z,99709.69
2022-11-20T14:33:04.899Z,99700.09
2022-11-20T14:35:38.026Z,99706.44
2022-11-20T14:38:05.313Z,99703.66
2022-11-20T14:40:36.943Z,99691.41
2022-11-20T14:43:17.462Z,99684.25
2022-11-20T14:45:47.448Z,99682.63
2022-11-20T14:48:14.515Z,99683.47
2022-11-20T14:50:41.613Z,99667.59
2022-11-20T14:53:08.333Z,99652.56
2022-11-20T14:55:39.746Z,99651.63
2022-11-20T14:58:21.901Z,99653.13
2022-11-20T15:01:00.240Z,99644.81
2022-11-20T15:03:35.051Z,99644.47
2022-11-20T15:06:02.139Z,99638.09
2022-11-20T15:08:29.323Z,99644.47
2022-11-20T15:10:56.725Z,99639.63
2022-11-20T15:13:32.638Z,99633.25
2022-11-20T15:16:04.888Z,99612.56
2022-11-20T15:18:39.382Z,99615.78
2022-11-20T15:21:12.732Z,99603.53
2022-11-20T15:23:39.557Z,99605.88
2022-11-20T15:26:07.704Z,99605.88
2022-11-20T15:28:41.949Z,99603.09
2022-11-20T15:31:14.038Z,99598.69
2022-11-20T15:33:40.915Z,99592.69
2022-11-20T15:36:08.069Z,99576.81
2022-11-20T15:38:34.856Z,99580.53
2022-11-20T15:41:01.823Z,99576.03
2022-11-20T15:43:28.545Z,99574.59
2022-11-20T15:46:00.182Z,99572.19
2022-11-20T15:48:30.647Z,99576.94
2022-11-20T15:51:12.869Z,99574.53
2022-11-20T15:53:41.491Z,99564.56
2022-11-20T15:56:13.686Z,99564.13
2022-11-20T15:58:41.367Z,99556.81
2022-11-20T16:01:17.067Z,99553.34
2022-11-20T16:03:44.046Z,99543.44
2022-11-20T16:06:10.822Z,99545.03
2022-11-20T16:08:37.692Z,99544.34
2022-11-20T16:11:04.643Z,99548.00
2022-11-20T16:13:51.809Z,99551.44
2022-11-20T16:16:31.282Z,99546.63
2022-11-20T16:18:58.606Z,99549.41
2022-11-20T16:21:31.666Z,99547.44
2022-11-20T16:24:03.092Z,99543.06
2022-11-20T16:26:30.342Z,99549.41
2022-11-20T16:28:57.654Z,99543.38
2022-11-20T16:31:24.513Z,99541.09
2022-11-20T16:33:53.487Z,99554.97
2022-11-20T16:36:22.012Z,99550.69
2022-11-20T16:38:56.544Z,99550.22
2022-11-20T16:41:26.730Z,99548.38
2022-11-20T16:43:58.146Z,99550.13
2022-11-20T16:46:27.340Z,99540.84
2022-11-20T16:49:05.922Z,99541.31
2022-11-20T16:51:35.971Z,99549.19
2022-11-20T16:54:07.885Z,99548.72
2022-11-20T16:56:35.049Z,99546.84
2022-11-20T16:59:02.782Z,99548.72
2022-11-20T17:01:31.386Z,99545.44
2022-11-20T17:04:00.460Z,99542.19
2022-11-20T17:06:29.462Z,99547.47
2022-11-20T17:08:57.063Z,99553.13
2022-11-20T17:11:24.347Z,99542.59
2022-11-20T17:13:52.175Z,99556.22
2022-11-20T17:16:21.186Z,99551.25
2022-11-20T17:18:50.097Z,99560.97
2022-11-20T17:21:18.320Z,99562.88
2022-11-20T17:23:46.462Z,99564.03
2022-11-20T17:26:22.517Z,99561.25
2022-11-20T17:29:01.297Z,99562.16
2022-11-20T17:31:29.738Z,99556.63
2022-11-20T17:33:56.805Z,99554.28
2022-11-20T17:36:23.868Z,99555.34
2022-11-20T17:38:50.599Z,99555.41
2022-11-20T17:41:23.023Z,99562.59
2022-11-20T17:43:50.114Z,99562.53
2022-11-20T17:46:19.747Z,99563.84
2022-11-20T17:48:48.608Z,99565.25
2022-11-20T17:51:17.187Z,99570.56
2022-11-20T17:53:47.907Z,99578.44
2022-11-20T17:56:34.066Z,99573.59
2022-11-20T17:59:01.219Z,99581.69
2022-11-20T18:01:28.043Z,99574.50
2022-11-20T18:03:57.304Z,99574.03
2022-11-20T18:06:26.267Z,99576.63
2022-11-20T18:08:53.805Z,99570.84
2022-11-20T18:11:26.515Z,99576.50
2022-11-20T18:14:14.565Z,99572.34
2022-11-20T18:16:46.907Z,99568.31
2022-11-20T18:19:16.837Z,99563.88
2022-11-20T18:21:43.659Z,99569.69
2022-11-20T18:24:10.878Z,99565.53
2022-11-20T18:26:43.885Z,99563.47
2022-11-20T18:29:12.193Z,99555.59
2022-11-20T18:31:39.546Z,99562.53
2022-11-20T18:34:07.878Z,99552.63
2022-11-20T18:36:34.713Z,99557.69
2022-11-20T18:39:01.800Z,99551.53
2022-11-20T18:41:49.637Z,99554.44
2022-11-20T18:44:41.367Z,99556.09
2022-11-20T18:47:14.613Z,99551.81
2022-11-20T18:49:54.930Z,99550.31
2022-11-20T18:52:35.484Z,99550.69
2022-11-20T18:55:03.960Z,99547.78
2022-11-20T18:57:31.662Z,99547.78
2022-11-20T19:00:04.842Z,99555.19
2022-11-20T19:02:40.611Z,99555.19
2022-11-20T19:05:08.516Z,99550.81
2022-11-20T19:07:35.455Z,99566.75
2022-11-20T19:10:04.230Z,99564.00
2022-11-20T19:12:31.642Z,99561.91
2022-11-20T19:14:58.410Z,99569.06
2022-11-20T19:17:25.297Z,99572.91
2022-11-20T19:19:54.938Z,99578.91
2022-11-20T19:22:21.995Z,99577.88
2022-11-20T19:24:49.437Z,99570.56
2022-11-20T19:27:16.265Z,99580.66
2022-11-20T19:29:43.199Z,99581.59
2022-11-20T19:32:10.223Z,99584.94
2022-11-20T19:34:36.994Z,99579.97
2022-11-20T19:37:03.923Z,99576.03
2022-11-20T19:39:30.960Z,99587.13
2022-11-20T19:41:57.653Z,99582.28
2022-11-20T19:44:24.817Z,99588.41
2022-11-20T19:46:51.722Z,99586.91
2022-11-20T19:49:18.475Z,99589.22
2022-11-20T19:51:51.089Z,99592.31
2022-11-20T19:54:18.415Z,99590.59
2022-11-20T19:56:46.616Z,99594.19
2022-11-20T19:59:14.644Z,99599.50
2022-11-20T20:01:42.127Z,99600.19
2022-11-20T20:04:10.288Z,99612.81
2022-11-20T20:06:39.373Z,99611.06
2022-11-20T20:09:09.784Z,99606.69
2022-11-20T20:11:37.409Z,99613.50
2022-11-20T20:14:10.397Z,99614.63
2022-11-20T20:16:37.253Z,99609.56
2022-11-20T20:19:05.653Z,99614.19
2022-11-20T20:21:35.117Z,99610.97
2022-11-20T20:24:02.759Z,99615.00
2022-11-20T20:26:31.511Z,99610.97
2022-11-20T20:28:59.224Z,99622.06
2022-11-20T20:31:28.038Z,99626.22
2022-11-20T20:33:55.842Z,99628.06
2022-11-20T20:36:23.921Z,99638.69
2022-11-20T20:38:55.025Z,99636.38
2022-11-20T20:41:24.650Z,99635.94
2022-11-20T20:44:11.627Z,99639.38
2022-11-20T20:46:39.399Z,99638.22
2022-11-20T20:49:07.344Z,99643.06
2022-11-20T20:51:35.076Z,99654.16
2022-11-20T20:54:01.859Z,99641.94
2022-11-20T20:56:28.645Z,99651.06
2022-11-20T20:58:55.385Z,99648.63
2022-11-20T21:01:23.033Z,99645.84
2022-11-20T21:03:49.959Z,99654.66
2022-11-20T21:06:16.889Z,99654.75
2022-11-20T21:08:44.668Z,99647.00
2022-11-20T21:11:14.310Z,99644.59
2022-11-20T21:13:43.032Z,99650.94
2022-11-20T21:16:11.550Z,99650.38
2022-11-20T21:18:38.833Z,99648.19
2022-11-20T21:21:26.675Z,99654.63
2022-11-20T21:23:54.108Z,99652.56
2022-11-20T21:26:21.884Z,99642.16
2022-11-20T21:28:50.012Z,99645.66
2022-11-20T21:31:22.300Z,99651.41
2022-11-20T21:33:51.363Z,99648.63
2022-11-20T21:36:20.705Z,99643.09
2022-11-20T21:38:48.200Z,99645.16
2022-11-20T21:41:15.554Z,99650.78
2022-11-20T21:43:44.285Z,99657.16
2022-11-20T21:46:13.956Z,99657.06
2022-11-20T21:48:42.666Z,99654.63
2022-11-20T21:51:15.039Z,99663.75
2022-11-20T21:53:42.353Z,99661.53
2022-11-20T21:56:10.620Z,99657.41
2022-11-20T21:58:39.308Z,99659.25
2022-11-20T22:01:10.700Z,99671.03
2022-11-20T22:03:38.761Z,99671.38
2022-11-20T22:06:07.240Z,99667.00
2022-11-20T22:08:35.986Z,99668.59
2022-11-20T22:11:11.782Z,99673.34
2022-11-20T22:13:57.291Z,99674.16
2022-11-20T22:16:24.911Z,99676.22
2022-11-20T22:18:54.749Z,99666.28
2022-11-20T22:21:24.383Z,99667.78
2022-11-20T22:23:51.611Z,99661.75
2022-11-20T22:26:21.020Z,99672.19
2022-11-20T22:28:51.486Z,99672.09
2022-11-20T22:31:20.411Z,99666.09
2022-11-20T22:33:47.206Z,99670.84
2022-11-20T22:36:16.481Z,99680.31
2022-11-20T22:38:43.714Z,99684.03
2022-11-20T22:41:16.515Z,99690.25
2022-11-20T22:43:44.660Z,99685.16
2022-11-20T22:46:11.584Z,99689.56
2022-11-20T22:48:41.225Z,99693.97
2022-11-20T22:51:12.954Z,99690.72
2022-11-20T22:53:41.794Z,99697.63
2022-11-20T22:56:10.581Z,99699.72
2022-11-20T22:58:38.296Z,99704.69
2022-11-20T23:01:25.191Z,99703.91
2022-11-20T23:03:57.222Z,99715.69
2022-11-20T23:06:24.858Z,99715.00
2022-11-20T23:08:52.125Z,99714.06
2022-11-20T23:11:23.217Z,99725.16
2022-11-20T23:13:56.600Z,99725.03
2022-11-20T23:16:24.522Z,99719.72
2022-11-20T23:18:56.055Z,99722.81
2022-11-20T23:21:23.234Z,99717.75
2022-11-20T23:23:54.886Z,99720.75
2022-11-20T23:26:24.327Z,99720.25
2022-11-20T23:28:53.768Z,99716.53
2022-11-20T23:31:20.826Z,99724.72
2022-11-20T23:33:47.761Z,99731.28
2022-11-20T23:36:14.595Z,99727.38
2022-11-20T23:38:41.536Z,99736.81
2022-11-20T23:41:09.160Z,99736.81
2022-11-20T23:43:36.006Z,99726.09
2022-11-20T23:46:03.920Z,99741.59
2022-11-20T23:48:33.900Z,99733.03
2022-11-20T23:51:01.321Z,99743.09
2022-11-20T23:53:28.317Z,99743.28
2022-11-20T23:55:58.254Z,99732.69
2022-11-20T23:58:26.832Z,99743.09
